createdAt,value
2019-06-20T00:02:06.671Z,21.60
2019-06-20T00:04:35.460Z,21.60
2019-06-20T00:07:04.202Z,21.40
2019-06-20T00:09:32.934Z,21.40
2019-06-20T00:12:01.620Z,21.30
2019-06-20T00:14:30.288Z,21.30
2019-06-20T00:16:59.587Z,21.40
2019-06-20T00:19:28.397Z,21.40
2019-06-20T00:21:57.185Z,21.40
2019-06-20T00:24:25.886Z,21.30
2019-06-20T00:26:54.556Z,21.30
2019-06-20T00:29:23.211Z,21.30
2019-06-20T00:31:51.881Z,21.30
2019-06-20T00:34:20.500Z,21.30
2019-06-20T00:36:51.249Z,21.30
2019-06-20T00:39:19.729Z,21.20
2019-06-20T00:41:48.724Z,21.20
2019-06-20T00:44:17.409Z,21.10
2019-06-20T00:46:46.088Z,21.10
2019-06-20T00:49:14.782Z,21.10
2019-06-20T00:51:43.408Z,21.10
2019-06-20T00:54:12.153Z,21.10
2019-06-20T00:56:40.770Z,21.00
2019-06-20T00:59:09.527Z,21.00
2019-06-20T01:01:38.267Z,20.90
2019-06-20T01:04:07.448Z,20.90
2019-06-20T01:06:36.117Z,20.90
2019-06-20T01:09:08.170Z,20.80
2019-06-20T01:11:37.101Z,20.80
2019-06-20T01:14:05.866Z,20.80
2019-06-20T01:16:34.632Z,20.80
2019-06-20T01:19:03.319Z,20.80
2019-06-20T01:21:31.985Z,20.70
2019-06-20T01:24:00.599Z,20.70
2019-06-20T01:26:29.281Z,20.70
2019-06-20T01:28:57.902Z,20.60
2019-06-20T01:31:26.657Z,20.50
2019-06-20T01:33:55.436Z,20.50
2019-06-20T01:36:24.052Z,20.50
2019-06-20T01:38:52.815Z,20.40
2019-06-20T01:41:22.096Z,20.40
2019-06-20T01:43:51.239Z,20.30
2019-06-20T01:46:20.029Z,20.30
2019-06-20T01:48:48.871Z,20.30
2019-06-20T01:51:17.567Z,20.20
2019-06-20T01:53:46.231Z,20.20
2019-06-20T01:56:14.852Z,20.30
2019-06-20T01:58:43.522Z,20.30
2019-06-20T02:01:12.135Z,20.20
2019-06-20T02:03:40.873Z,20.20
2019-06-20T02:06:09.583Z,20.20
2019-06-20T02:08:38.274Z,20.20
2019-06-20T02:11:07.012Z,20.10
2019-06-20T02:13:35.711Z,20.00
2019-06-20T02:16:05.386Z,19.90
2019-06-20T02:18:34.004Z,20.00
2019-06-20T02:21:03.035Z,19.90
2019-06-20T02:23:31.727Z,19.80
2019-06-20T02:26:00.509Z,19.80
2019-06-20T02:28:29.127Z,19.70
2019-06-20T02:30:57.985Z,19.70
2019-06-20T02:33:26.682Z,19.60
2019-06-20T02:35:55.376Z,19.60
2019-06-20T02:38:24.156Z,19.50
2019-06-20T02:40:52.779Z,19.50
2019-06-20T02:43:22.334Z,19.50
2019-06-20T02:45:50.957Z,19.50
2019-06-20T02:48:19.716Z,19.60
2019-06-20T02:50:48.513Z,19.60
2019-06-20T02:53:17.412Z,19.60
2019-06-20T02:55:46.101Z,19.50
2019-06-20T02:58:14.836Z,19.50
2019-06-20T03:00:58.039Z,19.50
2019-06-20T03:03:28.118Z,19.50
2019-06-20T03:05:57.310Z,19.60
2019-06-20T03:08:26.519Z,19.70
2019-06-20T03:10:55.399Z,19.70
2019-06-20T03:13:24.136Z,19.70
2019-06-20T03:15:52.985Z,19.70
2019-06-20T03:18:21.659Z,19.70
2019-06-20T03:20:50.344Z,19.70
2019-06-20T03:23:19.033Z,19.70
2019-06-20T03:25:47.718Z,19.70
2019-06-20T03:28:16.462Z,19.70
2019-06-20T03:30:45.196Z,19.70
2019-06-20T03:33:13.868Z,19.70
2019-06-20T03:35:42.488Z,19.70
2019-06-20T03:38:11.150Z,19.70
2019-06-20T03:40:39.838Z,19.80
2019-06-20T03:43:08.521Z,19.60
2019-06-20T03:45:37.207Z,19.60
2019-06-20T03:48:05.834Z,19.70
2019-06-20T03:50:34.670Z,19.70
2019-06-20T03:53:03.358Z,19.80
2019-06-20T03:55:32.885Z,19.80
2019-06-20T03:58:02.695Z,19.80
2019-06-20T04:00:34.532Z,19.80
2019-06-20T04:03:04.566Z,19.80
2019-06-20T04:05:33.938Z,19.80
2019-06-20T04:08:02.860Z,19.80
2019-06-20T04:10:31.482Z,19.90
2019-06-20T04:13:00.231Z,19.80
2019-06-20T04:15:29.020Z,19.80
2019-06-20T04:17:57.639Z,19.90
2019-06-20T04:20:26.369Z,20.00
2019-06-20T04:22:54.984Z,20.10
2019-06-20T04:25:23.654Z,20.20
2019-06-20T04:27:52.370Z,20.30
2019-06-20T04:30:21.138Z,20.40
2019-06-20T04:32:49.826Z,20.50
2019-06-20T04:35:18.484Z,20.50
2019-06-20T04:37:47.154Z,20.60
2019-06-20T04:40:17.566Z,20.60
2019-06-20T04:42:46.189Z,20.60
2019-06-20T04:45:15.511Z,20.70
2019-06-20T04:47:44.301Z,20.80
2019-06-20T04:50:13.108Z,20.80
2019-06-20T04:52:41.738Z,20.90
2019-06-20T04:55:10.745Z,21.00
2019-06-20T04:57:39.475Z,21.00
2019-06-20T05:00:08.681Z,21.00
2019-06-20T05:02:37.445Z,21.10
2019-06-20T05:05:08.671Z,21.20
2019-06-20T05:07:37.473Z,21.30
2019-06-20T05:10:07.047Z,21.40
2019-06-20T05:12:35.912Z,21.40
2019-06-20T05:15:06.490Z,21.50
2019-06-20T05:17:35.178Z,21.50
2019-06-20T05:20:05.658Z,21.60
2019-06-20T05:22:34.323Z,21.70
2019-06-20T05:25:04.011Z,21.80
2019-06-20T05:27:32.685Z,21.90
2019-06-20T05:30:01.337Z,22.00
2019-06-20T05:32:30.345Z,22.20
2019-06-20T05:35:02.792Z,22.20
2019-06-20T05:37:29.470Z,22.40
2019-06-20T05:39:58.087Z,22.50
2019-06-20T05:42:26.866Z,22.60
2019-06-20T05:44:55.608Z,22.70
2019-06-20T05:47:24.443Z,22.70
2019-06-20T05:49:53.129Z,22.70
2019-06-20T05:52:21.814Z,22.80
2019-06-20T05:54:50.499Z,22.90
2019-06-20T05:57:19.240Z,22.90
2019-06-20T05:59:47.983Z,23.00
2019-06-20T06:02:16.671Z,23.10
2019-06-20T06:04:45.343Z,23.20
2019-06-20T06:07:14.331Z,23.20
2019-06-20T06:09:43.214Z,23.20
2019-06-20T06:12:12.306Z,23.30
2019-06-20T06:14:40.976Z,23.40
2019-06-20T06:17:09.602Z,23.40
2019-06-20T06:19:38.340Z,23.50
2019-06-20T06:22:07.076Z,23.60
2019-06-20T06:24:35.747Z,23.70
2019-06-20T06:27:04.482Z,23.70
2019-06-20T06:29:33.152Z,23.80
2019-06-20T06:32:01.928Z,23.90
2019-06-20T06:34:30.583Z,24.10
2019-06-20T06:36:59.333Z,24.30
2019-06-20T06:39:28.079Z,24.40
2019-06-20T06:41:56.706Z,24.60
2019-06-20T06:44:25.369Z,24.80
2019-06-20T06:46:59.273Z,25.00
2019-06-20T06:49:24.566Z,25.20
2019-06-20T06:51:53.208Z,25.20
2019-06-20T06:54:21.953Z,25.20
2019-06-20T06:56:50.628Z,25.10
2019-06-20T06:59:19.317Z,25.00
2019-06-20T07:01:47.941Z,25.00
2019-06-20T07:04:16.675Z,24.90
2019-06-20T07:06:45.339Z,24.90
2019-06-20T07:09:14.056Z,24.90
2019-06-20T07:11:42.843Z,24.90
2019-06-20T07:14:11.533Z,24.90
2019-06-20T07:16:40.421Z,24.80
2019-06-20T07:19:09.100Z,24.80
2019-06-20T07:21:37.771Z,24.70
2019-06-20T07:24:06.583Z,24.60
2019-06-20T07:26:35.254Z,24.40
2019-06-20T07:29:04.412Z,24.20
2019-06-20T07:31:33.079Z,23.90
2019-06-20T07:34:01.703Z,23.70
2019-06-20T07:36:30.526Z,23.50
2019-06-20T07:38:59.229Z,23.10
2019-06-20T07:41:27.926Z,22.90
2019-06-20T07:43:56.561Z,22.90
2019-06-20T07:46:25.326Z,23.10
2019-06-20T07:48:53.990Z,23.00
2019-06-20T07:51:22.745Z,23.10
2019-06-20T07:53:51.411Z,23.20
2019-06-20T07:56:20.087Z,23.20
2019-06-20T07:58:48.775Z,23.20
2019-06-20T08:01:17.496Z,23.30
2019-06-20T08:03:46.281Z,23.40
2019-06-20T08:06:14.900Z,23.60
2019-06-20T08:08:43.655Z,23.70
2019-06-20T08:11:12.469Z,23.90
2019-06-20T08:13:41.196Z,23.90
2019-06-20T08:16:09.931Z,24.00
2019-06-20T08:18:38.664Z,24.30
2019-06-20T08:21:07.363Z,24.20
2019-06-20T08:23:36.078Z,24.20
2019-06-20T08:26:04.781Z,24.40
2019-06-20T08:28:33.447Z,24.50
2019-06-20T08:31:02.554Z,24.60
2019-06-20T08:33:31.442Z,24.60
2019-06-20T08:36:00.512Z,24.80
2019-06-20T08:38:29.313Z,24.90
2019-06-20T08:40:58.560Z,24.80
2019-06-20T08:43:27.825Z,24.90
2019-06-20T08:45:57.844Z,25.00
2019-06-20T08:48:26.637Z,25.10
2019-06-20T08:50:56.827Z,25.30
2019-06-20T08:53:26.039Z,25.00
2019-06-20T08:55:56.297Z,25.10
2019-06-20T08:58:25.335Z,24.90
2019-06-20T09:00:55.876Z,24.90
2019-06-20T09:03:24.902Z,25.00
2019-06-20T09:05:54.918Z,24.90
2019-06-20T09:08:23.715Z,25.10
2019-06-20T09:10:54.173Z,24.90
2019-06-20T09:13:23.018Z,25.20
2019-06-20T09:15:52.207Z,25.40
2019-06-20T09:18:22.002Z,25.30
2019-06-20T09:20:52.663Z,25.40
2019-06-20T09:23:21.190Z,25.40
2019-06-20T09:25:50.873Z,25.60
2019-06-20T09:28:20.207Z,25.80
2019-06-20T09:30:49.039Z,25.80
2019-06-20T09:33:17.720Z,25.90
2019-06-20T09:35:46.381Z,25.80
2019-06-20T09:38:15.110Z,25.80
2019-06-20T09:40:44.418Z,25.70
2019-06-20T09:43:26.779Z,25.70
2019-06-20T09:45:44.580Z,25.80
2019-06-20T09:48:13.331Z,25.60
2019-06-20T09:50:42.416Z,25.70
2019-06-20T09:53:11.105Z,25.70
2019-06-20T09:55:42.773Z,25.90
2019-06-20T09:58:12.688Z,25.90
2019-06-20T10:00:41.876Z,25.90
2019-06-20T10:03:10.549Z,25.90
2019-06-20T10:05:39.232Z,25.80
2019-06-20T10:08:07.985Z,25.80
2019-06-20T10:10:38.486Z,25.80
2019-06-20T10:13:07.162Z,25.80
2019-06-20T10:15:37.790Z,25.90
2019-06-20T10:18:06.974Z,25.90
2019-06-20T10:20:38.793Z,26.20
2019-06-20T10:23:06.606Z,26.30
2019-06-20T10:25:35.272Z,26.40
2019-06-20T10:28:04.287Z,26.60
2019-06-20T10:30:32.955Z,26.70
2019-06-20T10:33:01.579Z,26.90
2019-06-20T10:35:30.350Z,26.70
2019-06-20T10:37:59.134Z,26.80
2019-06-20T10:40:28.091Z,26.80
2019-06-20T10:42:57.039Z,26.90
2019-06-20T10:45:26.608Z,26.90
2019-06-20T10:47:56.086Z,26.60
2019-06-20T10:50:25.535Z,26.70
2019-06-20T10:52:54.226Z,26.90
2019-06-20T10:55:23.519Z,27.00
2019-06-20T10:57:52.337Z,27.10
2019-06-20T11:00:31.269Z,27.10
2019-06-20T11:02:55.245Z,26.80
2019-06-20T11:05:24.326Z,26.80
2019-06-20T11:07:53.012Z,26.80
2019-06-20T11:10:22.388Z,26.80
2019-06-20T11:12:55.621Z,26.90
2019-06-20T11:15:23.453Z,27.10
2019-06-20T11:17:52.145Z,27.00
2019-06-20T11:20:22.876Z,27.00
2019-06-20T11:22:51.556Z,26.90
2019-06-20T11:25:20.717Z,26.90
2019-06-20T11:27:49.455Z,27.10
2019-06-20T11:30:28.434Z,27.30
2019-06-20T11:32:57.159Z,27.30
2019-06-20T11:35:25.828Z,27.20
2019-06-20T11:37:54.493Z,27.30
2019-06-20T11:40:23.504Z,27.50
2019-06-20T11:42:52.321Z,27.60
2019-06-20T11:45:21.326Z,27.80
2019-06-20T11:47:50.002Z,27.90
2019-06-20T11:50:20.320Z,27.80
2019-06-20T11:52:49.118Z,28.00
2019-06-20T11:55:18.432Z,27.80
2019-06-20T11:57:47.054Z,27.80
2019-06-20T12:00:18.796Z,27.90
2019-06-20T12:02:48.292Z,28.00
2019-06-20T12:05:17.783Z,28.10
2019-06-20T12:07:47.862Z,27.90
2019-06-20T12:10:17.604Z,27.80
2019-06-20T12:12:46.931Z,27.90
2019-06-20T12:15:18.055Z,28.00
2019-06-20T12:17:47.307Z,28.20
2019-06-20T12:20:16.864Z,28.20
2019-06-20T12:22:46.640Z,28.20
2019-06-20T12:25:15.939Z,28.30
2019-06-20T12:27:45.420Z,28.30
2019-06-20T12:30:17.429Z,28.20
2019-06-20T12:32:46.813Z,28.10
2019-06-20T12:35:15.969Z,28.20
2019-06-20T12:37:45.220Z,28.20
2019-06-20T12:40:15.137Z,28.30
2019-06-20T12:42:44.892Z,28.40
2019-06-20T12:45:17.218Z,28.30
2019-06-20T12:47:46.262Z,28.40
2019-06-20T12:50:15.850Z,28.40
2019-06-20T12:52:45.705Z,28.30
2019-06-20T12:55:15.249Z,28.40
2019-06-20T12:57:44.264Z,28.50
2019-06-20T13:00:14.630Z,28.60
2019-06-20T13:02:43.834Z,28.50
2019-06-20T13:05:16.412Z,28.60
2019-06-20T13:07:46.455Z,28.90
2019-06-20T13:10:17.265Z,28.70
2019-06-20T13:12:46.498Z,28.80
2019-06-20T13:15:17.280Z,29.00
2019-06-20T13:17:47.010Z,29.20
2019-06-20T13:20:16.058Z,29.60
2019-06-20T13:22:44.902Z,29.60
2019-06-20T13:25:14.528Z,29.40
2019-06-20T13:27:43.537Z,29.50
2019-06-20T13:30:13.735Z,31.20
2019-06-20T13:32:43.817Z,32.80
2019-06-20T13:35:13.651Z,34.50
2019-06-20T13:37:43.480Z,34.90
2019-06-20T13:40:13.583Z,35.20
2019-06-20T13:42:44.018Z,34.90
2019-06-20T13:45:22.503Z,33.50
2019-06-20T13:47:51.491Z,32.30
2019-06-20T13:50:22.706Z,32.30
2019-06-20T13:52:51.612Z,33.70
2019-06-20T13:55:20.579Z,34.90
2019-06-20T13:57:49.509Z,35.50
2019-06-20T14:00:21.907Z,35.80
2019-06-20T14:02:51.407Z,34.80
2019-06-20T14:05:20.864Z,33.90
2019-06-20T14:07:53.258Z,34.00
2019-06-20T14:10:20.738Z,34.10
2019-06-20T14:12:49.474Z,33.60
2019-06-20T14:15:19.553Z,33.10
2019-06-20T14:17:49.716Z,32.70
2019-06-20T14:20:20.181Z,31.90
2019-06-20T14:22:49.467Z,31.80
2019-06-20T14:25:18.939Z,31.40
2019-06-20T14:27:49.024Z,31.20
2019-06-20T14:30:20.435Z,30.70
2019-06-20T14:32:49.567Z,30.80
2019-06-20T14:35:19.079Z,31.10
2019-06-20T14:37:49.376Z,31.10
2019-06-20T14:40:18.620Z,31.30
2019-06-20T14:42:47.983Z,31.50
2019-06-20T14:45:17.169Z,31.50
2019-06-20T14:47:45.931Z,31.10
2019-06-20T14:50:15.316Z,30.80
2019-06-20T14:52:44.563Z,30.30
2019-06-20T14:55:15.070Z,30.10
2019-06-20T14:57:45.256Z,30.10
2019-06-20T15:00:15.054Z,30.10
2019-06-20T15:02:54.088Z,29.70
2019-06-20T15:05:21.225Z,29.60
2019-06-20T15:07:52.139Z,29.20
2019-06-20T15:10:20.692Z,29.00
2019-06-20T15:12:50.287Z,28.60
2019-06-20T15:15:21.378Z,28.30
2019-06-20T15:17:53.254Z,28.10
2019-06-20T15:20:20.519Z,27.90
2019-06-20T15:22:50.692Z,27.70
2019-06-20T15:25:19.624Z,27.60
2019-06-20T15:27:50.235Z,27.30
2019-06-20T15:30:19.590Z,27.00
2019-06-20T15:33:01.181Z,26.70
2019-06-20T15:35:18.736Z,26.70
2019-06-20T15:37:48.484Z,26.60
2019-06-20T15:40:18.753Z,26.60
2019-06-20T15:42:49.203Z,27.70
2019-06-20T15:45:18.480Z,28.80
2019-06-20T15:47:47.163Z,29.40
2019-06-20T15:50:15.925Z,29.60
2019-06-20T15:52:44.664Z,30.30
2019-06-20T15:55:15.411Z,30.10
2019-06-20T15:57:44.122Z,29.90
2019-06-20T16:00:13.825Z,29.60
2019-06-20T16:02:42.498Z,29.40
2019-06-20T16:05:11.651Z,29.20
2019-06-20T16:07:40.444Z,29.00
2019-06-20T16:10:10.121Z,28.40
2019-06-20T16:12:38.852Z,28.20
2019-06-20T16:15:09.489Z,28.00
2019-06-20T16:17:38.468Z,28.10
2019-06-20T16:20:08.093Z,28.50
2019-06-20T16:22:36.873Z,29.40
2019-06-20T16:25:06.630Z,30.80
2019-06-20T16:27:35.441Z,32.10
2019-06-20T16:30:06.560Z,33.30
2019-06-20T16:32:35.798Z,34.10
2019-06-20T16:35:08.843Z,34.80
2019-06-20T16:37:37.795Z,34.90
2019-06-20T16:40:08.489Z,35.10
2019-06-20T16:42:37.167Z,35.60
2019-06-20T16:45:08.240Z,36.10
2019-06-20T16:47:37.149Z,36.00
2019-06-20T16:50:08.086Z,36.10
2019-06-20T16:52:36.866Z,36.40
2019-06-20T16:55:06.782Z,36.90
2019-06-20T16:57:35.675Z,37.10
2019-06-20T17:00:07.782Z,37.30
2019-06-20T17:02:36.914Z,37.30
2019-06-20T17:05:08.895Z,37.40
2019-06-20T17:07:37.676Z,37.80
2019-06-20T17:10:07.587Z,37.90
2019-06-20T17:12:36.396Z,37.60
2019-06-20T17:15:08.637Z,37.70
2019-06-20T17:17:36.723Z,38.10
2019-06-20T17:20:09.726Z,37.70
2019-06-20T17:22:38.923Z,37.90
2019-06-20T17:25:08.043Z,38.00
2019-06-20T17:27:36.980Z,37.70
2019-06-20T17:30:14.054Z,37.30
2019-06-20T17:32:42.745Z,37.20
2019-06-20T17:35:11.958Z,37.10
2019-06-20T17:37:40.641Z,37.50
2019-06-20T17:40:12.529Z,37.60
2019-06-20T17:42:41.149Z,37.10
2019-06-20T17:45:11.120Z,36.60
2019-06-20T17:47:40.018Z,35.80
2019-06-20T17:50:10.675Z,35.20
2019-06-20T17:52:39.713Z,35.00
2019-06-20T17:55:10.581Z,34.70
2019-06-20T17:57:39.203Z,34.50
2019-06-20T18:00:17.099Z,34.30
2019-06-20T18:02:45.720Z,34.00
2019-06-20T18:05:16.809Z,33.60
2019-06-20T18:07:45.575Z,33.20
2019-06-20T18:10:15.801Z,32.80
2019-06-20T18:12:44.542Z,32.40
2019-06-20T18:15:14.075Z,32.00
2019-06-20T18:17:42.796Z,31.70
2019-06-20T18:20:13.369Z,31.30
2019-06-20T18:22:42.214Z,31.00
2019-06-20T18:25:12.054Z,30.50
2019-06-20T18:27:40.807Z,30.30
2019-06-20T18:30:11.847Z,30.00
2019-06-20T18:32:40.637Z,29.90
2019-06-20T18:35:10.366Z,29.80
2019-06-20T18:37:39.136Z,29.80
2019-06-20T18:40:09.967Z,29.60
2019-06-20T18:42:39.127Z,29.60
2019-06-20T18:45:09.701Z,29.50
2019-06-20T18:47:38.547Z,29.40
2019-06-20T18:50:07.904Z,29.20
2019-06-20T18:52:51.090Z,28.90
2019-06-20T18:55:08.567Z,28.70
2019-06-20T18:57:37.235Z,28.40
2019-06-20T19:00:10.371Z,28.30
2019-06-20T19:02:39.282Z,28.10
2019-06-20T19:05:10.572Z,28.00
2019-06-20T19:07:39.350Z,27.90
2019-06-20T19:10:09.885Z,27.60
2019-06-20T19:12:38.675Z,27.60
2019-06-20T19:15:08.897Z,27.40
2019-06-20T19:17:37.882Z,27.30
2019-06-20T19:20:07.418Z,27.30
2019-06-20T19:22:36.189Z,27.20
2019-06-20T19:25:07.664Z,27.10
2019-06-20T19:27:45.725Z,26.90
2019-06-20T19:30:08.521Z,26.80
2019-06-20T19:32:37.302Z,26.70
2019-06-20T19:35:10.172Z,26.50
2019-06-20T19:37:38.111Z,26.20
2019-06-20T19:40:08.600Z,26.10
2019-06-20T19:42:37.617Z,25.90
2019-06-20T19:45:11.211Z,25.70
2019-06-20T19:47:40.435Z,25.50
2019-06-20T19:50:09.749Z,25.40
2019-06-20T19:52:38.809Z,25.30
2019-06-20T19:55:07.821Z,25.20
2019-06-20T19:57:36.519Z,25.00
2019-06-20T20:00:08.587Z,25.00
2019-06-20T20:02:37.377Z,25.00
2019-06-20T20:05:19.283Z,24.90
2019-06-20T20:07:40.993Z,24.80
2019-06-20T20:10:10.375Z,24.70
2019-06-20T20:12:39.183Z,24.70
2019-06-20T20:15:09.306Z,24.70
2019-06-20T20:17:37.997Z,24.50
2019-06-20T20:20:08.079Z,24.50
2019-06-20T20:22:36.873Z,24.30
2019-06-20T20:25:07.550Z,24.30
2019-06-20T20:27:36.358Z,24.20
2019-06-20T20:30:10.616Z,24.10
2019-06-20T20:32:39.789Z,24.20
2019-06-20T20:35:08.742Z,24.20
2019-06-20T20:37:37.413Z,24.10
2019-06-20T20:40:10.944Z,24.10
2019-06-20T20:42:39.613Z,23.90
2019-06-20T20:45:08.943Z,23.80
2019-06-20T20:47:37.689Z,23.80
2019-06-20T20:50:09.017Z,23.80
2019-06-20T20:52:37.827Z,23.80
2019-06-20T20:55:09.587Z,23.60
2019-06-20T20:57:38.373Z,23.60
2019-06-20T21:00:23.243Z,23.50
2019-06-20T21:02:52.924Z,23.60
2019-06-20T21:05:21.946Z,23.60
2019-06-20T21:07:50.834Z,23.60
2019-06-20T21:10:20.104Z,23.50
2019-06-20T21:12:48.766Z,23.50
2019-06-20T21:15:18.898Z,23.40
2019-06-20T21:17:48.739Z,23.30
2019-06-20T21:20:18.092Z,23.40
2019-06-20T21:22:46.947Z,23.30
2019-06-20T21:25:16.351Z,23.20
2019-06-20T21:27:44.978Z,23.20
2019-06-20T21:30:14.744Z,23.10
2019-06-20T21:32:43.443Z,23.00
2019-06-20T21:35:12.616Z,22.90
2019-06-20T21:37:41.238Z,23.00
2019-06-20T21:40:10.208Z,23.00
2019-06-20T21:42:39.007Z,23.00
2019-06-20T21:45:10.150Z,23.00
2019-06-20T21:47:38.772Z,22.90
2019-06-20T21:50:08.068Z,22.90
2019-06-20T21:52:37.675Z,22.90
2019-06-20T21:55:08.606Z,22.90
2019-06-20T21:57:37.257Z,22.90
2019-06-20T22:00:19.196Z,22.90
2019-06-20T22:02:47.883Z,22.90
2019-06-20T22:05:16.743Z,22.80
2019-06-20T22:07:45.432Z,22.80
2019-06-20T22:10:14.564Z,22.70
2019-06-20T22:12:43.299Z,22.70
2019-06-20T22:15:12.580Z,22.70
2019-06-20T22:17:41.288Z,22.70
2019-06-20T22:20:11.173Z,22.70
2019-06-20T22:22:39.844Z,22.70
2019-06-20T22:25:08.802Z,22.70
2019-06-20T22:27:37.497Z,22.60
2019-06-20T22:30:11.589Z,22.50
2019-06-20T22:32:40.275Z,22.50
2019-06-20T22:35:09.846Z,22.40
2019-06-20T22:37:38.543Z,22.40
2019-06-20T22:40:09.335Z,22.30
2019-06-20T22:42:38.122Z,22.20
2019-06-20T22:45:10.827Z,22.10
2019-06-20T22:47:39.655Z,22.20
2019-06-20T22:50:08.882Z,22.30
2019-06-20T22:52:37.544Z,22.30
2019-06-20T22:55:08.252Z,22.30
2019-06-20T22:57:36.984Z,22.30
2019-06-20T23:00:09.798Z,22.30
2019-06-20T23:02:38.613Z,22.30
2019-06-20T23:05:07.898Z,22.30
2019-06-20T23:07:36.525Z,22.30
2019-06-20T23:10:10.802Z,22.30
2019-06-20T23:12:37.802Z,22.30
2019-06-20T23:15:07.482Z,22.30
2019-06-20T23:17:36.182Z,22.30
2019-06-20T23:20:09.111Z,22.00
2019-06-20T23:22:37.850Z,21.80
2019-06-20T23:25:10.060Z,21.70
2019-06-20T23:27:38.811Z,21.60
2019-06-20T23:30:10.307Z,21.30
2019-06-20T23:32:39.147Z,21.20
2019-06-20T23:35:08.572Z,21.10
2019-06-20T23:37:37.304Z,21.10
2019-06-20T23:40:09.532Z,20.90
2019-06-20T23:42:38.397Z,20.80
2019-06-20T23:45:08.938Z,20.80
2019-06-20T23:47:37.805Z,20.80
2019-06-20T23:50:08.833Z,20.80
2019-06-20T23:52:37.505Z,20.90
2019-06-20T23:55:07.360Z,21.00
2019-06-20T23:57:36.025Z,21.10
